createdAt,value
2023-04-03T00:08:58.398Z,99.80
2023-04-03T00:11:27.479Z,99.90
2023-04-03T00:14:12.310Z,99.90
2023-04-03T00:16:47.900Z,99.90
2023-04-03T00:19:51.086Z,99.90
2023-04-03T00:22:24.018Z,99.90
2023-04-03T00:25:09.472Z,99.90
2023-04-03T00:27:56.846Z,99.90
2023-04-03T00:31:09.243Z,99.90
2023-04-03T00:34:06.205Z,99.90
2023-04-03T00:36:36.524Z,99.90
2023-04-03T00:39:21.480Z,99.90
2023-04-03T00:42:19.047Z,99.90
2023-04-03T00:45:10.576Z,99.90
2023-04-03T00:48:03.173Z,99.90
2023-04-03T00:50:53.184Z,99.90
2023-04-03T00:53:59.070Z,99.90
2023-04-03T00:57:06.053Z,99.90
2023-04-03T01:00:12.692Z,99.90
2023-04-03T01:02:58.333Z,99.90
2023-04-03T01:05:39.226Z,99.90
2023-04-03T01:08:46.440Z,99.90
2023-04-03T01:11:35.047Z,99.90
2023-04-03T01:14:27.644Z,99.90
2023-04-03T01:17:51.921Z,99.90
2023-04-03T01:27:47.270Z,99.90
2023-04-03T01:30:43.519Z,99.90
2023-04-03T01:33:37.445Z,99.90
2023-04-03T01:36:20.943Z,99.90
2023-04-03T01:38:58.328Z,99.90
2023-04-03T01:41:29.699Z,99.90
2023-04-03T01:44:38.763Z,99.90
2023-04-03T01:47:47.438Z,99.90
2023-04-03T01:50:55.010Z,99.90
2023-04-03T01:57:15.251Z,99.90
2023-04-03T02:00:02.171Z,99.90
2023-04-03T02:06:20.288Z,99.90
2023-04-03T02:12:35.394Z,99.90
2023-04-03T02:15:18.917Z,99.90
2023-04-03T02:17:48.473Z,99.90
2023-04-03T02:20:58.210Z,99.90
2023-04-03T02:23:54.485Z,99.90
2023-04-03T02:26:28.963Z,99.90
2023-04-03T02:32:13.842Z,99.90
2023-04-03T02:35:12.644Z,99.90
2023-04-03T02:37:53.139Z,99.90
2023-04-03T02:40:37.496Z,99.90
2023-04-03T02:43:22.003Z,99.90
2023-04-03T02:49:07.424Z,99.90
2023-04-03T02:51:36.764Z,99.90
2023-04-03T02:54:28.971Z,98.10
2023-04-03T03:00:11.996Z,97.10
2023-04-03T03:03:24.336Z,98.30
2023-04-03T03:06:32.042Z,99.90
2023-04-03T03:09:34.842Z,99.90
2023-04-03T03:12:38.425Z,99.90
2023-04-03T03:15:29.952Z,99.90
2023-04-03T03:18:05.088Z,99.90
2023-04-03T03:21:17.839Z,99.90
2023-04-03T03:24:03.084Z,99.90
2023-04-03T03:26:54.361Z,99.90
2023-04-03T03:29:58.685Z,99.90
2023-04-03T03:32:31.739Z,99.90
2023-04-03T03:35:00.860Z,99.90
2023-04-03T03:37:52.742Z,99.90
2023-04-03T03:41:00.180Z,99.90
2023-04-03T03:43:46.184Z,99.90
2023-04-03T03:46:30.238Z,99.90
2023-04-03T03:49:14.494Z,99.90
2023-04-03T03:51:59.944Z,99.90
2023-04-03T03:55:05.990Z,99.90
2023-04-03T03:57:53.545Z,99.90
2023-04-03T04:00:38.233Z,99.90
2023-04-03T04:03:16.086Z,99.90
2023-04-03T04:06:08.418Z,99.90
2023-04-03T04:08:50.550Z,99.90
2023-04-03T04:11:38.225Z,99.90
2023-04-03T04:14:21.283Z,99.90
2023-04-03T04:17:26.642Z,99.90
2023-04-03T04:20:08.330Z,99.90
2023-04-03T04:22:48.555Z,99.90
2023-04-03T04:25:43.573Z,99.90
2023-04-03T04:28:20.562Z,99.90
2023-04-03T04:31:12.038Z,99.90
2023-04-03T04:33:52.799Z,99.90
2023-04-03T04:36:37.374Z,99.90
2023-04-03T04:39:23.615Z,99.90
2023-04-03T04:42:04.226Z,99.90
2023-04-03T04:44:40.155Z,99.90
2023-04-03T04:50:52.597Z,99.90
2023-04-03T04:54:18.491Z,99.90
2023-04-03T04:57:07.861Z,99.90
2023-04-03T04:59:54.105Z,99.90
2023-04-03T05:02:43.343Z,99.90
2023-04-03T05:05:29.494Z,99.90
2023-04-03T05:08:07.965Z,99.90
2023-04-03T05:11:00.163Z,99.90
2023-04-03T05:13:48.339Z,99.90
2023-04-03T05:16:32.123Z,99.90
2023-04-03T05:19:22.502Z,99.90
2023-04-03T05:21:56.723Z,99.90
2023-04-03T05:24:53.071Z,99.90
2023-04-03T05:27:34.450Z,99.90
2023-04-03T05:30:15.773Z,99.90
2023-04-03T05:33:03.197Z,99.90
2023-04-03T05:36:10.028Z,99.90
2023-04-03T05:38:50.451Z,99.90
2023-04-03T05:42:08.960Z,99.90
2023-04-03T05:44:53.998Z,99.90
2023-04-03T05:47:48.592Z,99.90
2023-04-03T05:50:17.296Z,99.90
2023-04-03T05:53:23.127Z,99.90
2023-04-03T05:56:24.869Z,99.80
2023-04-03T05:58:58.285Z,99.90
2023-04-03T06:04:49.165Z,99.90
2023-04-03T06:07:34.890Z,99.90
2023-04-03T06:10:24.525Z,99.90
2023-04-03T06:13:20.494Z,99.90
2023-04-03T06:15:52.776Z,99.90
2023-04-03T06:18:38.608Z,99.90
2023-04-03T06:22:00.641Z,99.90
2023-04-03T06:24:44.286Z,99.90
2023-04-03T06:27:50.162Z,99.40
2023-04-03T06:30:22.376Z,99.30
2023-04-03T06:33:19.411Z,98.80
2023-04-03T06:36:11.183Z,99.00
2023-04-03T06:39:07.491Z,97.50
2023-04-03T06:42:12.097Z,98.50
2023-04-03T06:47:51.933Z,97.00
2023-04-03T06:50:33.774Z,95.80
2023-04-03T06:53:23.571Z,91.90
2023-04-03T06:55:58.045Z,91.20
2023-04-03T06:59:35.138Z,90.20
2023-04-03T07:03:00.873Z,89.80
2023-04-03T07:05:32.370Z,91.30
2023-04-03T07:08:15.460Z,88.10
2023-04-03T07:11:12.247Z,89.10
2023-04-03T07:14:07.388Z,86.80
2023-04-03T07:16:45.017Z,83.50
2023-04-03T07:19:30.609Z,80.70
2023-04-03T07:22:28.297Z,78.00
2023-04-03T07:25:14.869Z,87.10
2023-04-03T07:28:14.900Z,88.10
2023-04-03T07:31:05.081Z,83.30
2023-04-03T07:36:56.892Z,80.60
2023-04-03T07:40:02.980Z,83.20
2023-04-03T07:43:11.103Z,85.80
2023-04-03T07:45:58.841Z,85.70
2023-04-03T07:48:36.608Z,86.20
2023-04-03T07:51:46.180Z,89.70
2023-04-03T07:54:39.899Z,88.80
2023-04-03T07:57:17.868Z,87.30
2023-04-03T08:00:40.256Z,88.80
2023-04-03T08:03:24.957Z,89.50
2023-04-03T08:06:33.015Z,89.70
2023-04-03T08:09:14.161Z,88.00
2023-04-03T08:12:12.528Z,87.90
2023-04-03T08:15:17.203Z,90.00
2023-04-03T08:18:07.764Z,89.30
2023-04-03T08:20:53.981Z,88.10
2023-04-03T08:23:46.045Z,87.80
2023-04-03T08:29:38.179Z,89.10
2023-04-03T08:32:30.738Z,86.40
2023-04-03T08:35:08.533Z,85.60
2023-04-03T08:38:03.997Z,85.00
2023-04-03T08:44:56.447Z,84.00
2023-04-03T08:48:17.016Z,87.30
2023-04-03T08:51:14.079Z,82.10
2023-04-03T08:54:24.181Z,82.50
2023-04-03T08:57:13.946Z,81.90
2023-04-03T08:59:53.642Z,81.50
2023-04-03T09:02:53.979Z,80.00
2023-04-03T09:09:13.573Z,82.40
2023-04-03T09:12:29.791Z,80.10
2023-04-03T09:15:39.076Z,78.50
2023-04-03T09:18:51.798Z,81.60
2023-04-03T09:25:22.834Z,80.70
2023-04-03T09:28:49.181Z,78.50
2023-04-03T09:31:29.305Z,80.70
2023-04-03T09:34:18.674Z,82.50
2023-04-03T09:37:20.068Z,81.90
2023-04-03T09:40:04.222Z,80.90
2023-04-03T09:42:44.079Z,81.20
2023-04-03T09:46:02.625Z,79.70
2023-04-03T09:52:44.007Z,81.20
2023-04-03T09:56:01.271Z,79.20
2023-04-03T09:58:50.359Z,82.60
2023-04-03T10:01:45.845Z,79.40
2023-04-03T10:05:08.357Z,82.30
2023-04-03T10:07:51.677Z,80.00
2023-04-03T10:10:42.146Z,76.50
2023-04-03T10:13:29.784Z,77.60
2023-04-03T10:16:54.700Z,77.50
2023-04-03T10:19:56.032Z,76.70
2023-04-03T10:29:53.507Z,80.70
2023-04-03T10:36:36.907Z,81.40
2023-04-03T10:40:24.085Z,82.60
2023-04-03T10:43:30.396Z,82.00
2023-04-03T10:46:42.083Z,80.40
2023-04-03T10:49:59.298Z,80.70
2023-04-03T10:53:14.370Z,81.90
2023-04-03T10:56:25.964Z,82.80
2023-04-03T10:59:24.114Z,80.20
2023-04-03T11:06:09.369Z,81.20
2023-04-03T11:09:21.964Z,81.10
2023-04-03T11:12:13.070Z,80.10
2023-04-03T11:15:10.199Z,79.30
2023-04-03T11:18:03.932Z,79.70
2023-04-03T11:20:52.054Z,77.70
2023-04-03T11:23:49.971Z,82.10
2023-04-03T11:27:01.854Z,81.20
2023-04-03T11:30:11.572Z,80.20
2023-04-03T11:33:28.250Z,80.70
2023-04-03T11:36:54.171Z,80.60
2023-04-03T11:39:40.935Z,80.00
2023-04-03T11:42:32.497Z,81.20
2023-04-03T11:45:31.688Z,80.10
2023-04-03T11:48:23.201Z,82.30
2023-04-03T11:50:54.463Z,82.20
2023-04-03T11:53:41.342Z,79.10
2023-04-03T11:56:27.059Z,79.90
2023-04-03T11:59:38.938Z,79.90
2023-04-03T12:05:33.482Z,83.70
2023-04-03T12:08:45.388Z,78.40
2023-04-03T12:11:32.378Z,77.60
2023-04-03T12:14:17.118Z,79.00
2023-04-03T12:16:47.827Z,79.60
2023-04-03T12:19:59.946Z,81.50
2023-04-03T12:22:34.474Z,80.10
2023-04-03T12:25:48.743Z,76.40
2023-04-03T12:28:16.628Z,79.00
2023-04-03T12:30:48.098Z,78.60
2023-04-03T12:33:43.961Z,80.50
2023-04-03T12:36:29.485Z,81.90
2023-04-03T12:39:42.831Z,81.10
2023-04-03T12:42:22.284Z,81.00
2023-04-03T12:45:24.503Z,78.70
2023-04-03T12:47:58.022Z,77.40
2023-04-03T12:50:32.762Z,76.70
2023-04-03T12:53:14.124Z,77.70
2023-04-03T12:55:42.576Z,79.90
2023-04-03T12:58:29.853Z,77.50
2023-04-03T13:01:20.461Z,77.40
2023-04-03T13:03:53.269Z,76.60
2023-04-03T13:06:41.653Z,78.90
2023-04-03T13:09:34.588Z,78.00
2023-04-03T13:12:19.107Z,79.50
2023-04-03T13:15:05.851Z,77.40
2023-04-03T13:17:33.464Z,76.90
2023-04-03T13:20:33.733Z,77.20
2023-04-03T13:23:06.225Z,78.10
2023-04-03T13:25:38.134Z,79.40
2023-04-03T13:28:13.870Z,74.60
2023-04-03T13:31:31.664Z,76.90
2023-04-03T13:34:11.054Z,77.10
2023-04-03T13:36:57.556Z,79.50
2023-04-03T13:39:36.775Z,80.80
2023-04-03T13:42:26.581Z,80.60
2023-04-03T13:45:29.682Z,81.00
2023-04-03T13:48:49.117Z,81.30
2023-04-03T13:51:30.322Z,77.20
2023-04-03T13:54:15.445Z,80.90
2023-04-03T13:56:45.364Z,78.90
2023-04-03T13:59:17.720Z,78.90
2023-04-03T14:02:37.380Z,78.40
2023-04-03T14:05:07.019Z,78.00
2023-04-03T14:07:34.437Z,81.60
2023-04-03T14:10:03.008Z,81.00
2023-04-03T14:12:35.508Z,78.50
2023-04-03T14:15:05.791Z,79.20
2023-04-03T14:17:34.643Z,79.50
2023-04-03T14:20:05.044Z,78.10
2023-04-03T14:22:36.480Z,78.90
2023-04-03T14:25:07.482Z,82.20
2023-04-03T14:27:44.501Z,78.90
2023-04-03T14:30:40.866Z,77.30
2023-04-03T14:33:18.889Z,75.30
2023-04-03T14:35:46.852Z,74.00
2023-04-03T14:38:33.350Z,75.90
2023-04-03T14:41:14.016Z,75.20
2023-04-03T14:43:47.585Z,76.00
2023-04-03T14:46:38.724Z,76.00
2023-04-03T14:49:29.470Z,74.90
2023-04-03T14:51:59.365Z,77.10
2023-04-03T14:54:30.709Z,75.80
2023-04-03T14:57:01.578Z,76.10
2023-04-03T14:59:32.745Z,77.00
2023-04-03T15:02:04.469Z,78.60
2023-04-03T15:04:34.999Z,77.10
2023-04-03T15:07:03.811Z,74.40
2023-04-03T15:09:32.451Z,73.20
2023-04-03T15:12:03.789Z,73.90
2023-04-03T15:14:51.870Z,73.50
2023-04-03T15:17:24.017Z,73.60
2023-04-03T15:19:52.668Z,74.00
2023-04-03T15:22:22.951Z,73.00
2023-04-03T15:25:00.617Z,73.70
2023-04-03T15:27:29.532Z,75.60
2023-04-03T15:29:58.247Z,76.00
2023-04-03T15:32:27.114Z,76.00
2023-04-03T15:34:57.904Z,77.60
2023-04-03T15:37:27.443Z,75.50
2023-04-03T15:39:54.948Z,76.00
2023-04-03T15:42:24.907Z,75.20
2023-04-03T15:45:02.585Z,73.80
2023-04-03T15:47:33.804Z,75.80
2023-04-03T15:50:02.844Z,76.30
2023-04-03T15:52:32.163Z,79.50
2023-04-03T15:55:09.819Z,79.40
2023-04-03T16:00:10.247Z,78.50
2023-04-03T16:02:40.087Z,80.20
2023-04-03T16:05:12.352Z,77.90
2023-04-03T16:07:43.417Z,77.10
2023-04-03T16:10:23.706Z,78.90
2023-04-03T16:12:59.443Z,77.20
2023-04-03T16:15:29.282Z,75.50
2023-04-03T16:17:56.650Z,76.00
2023-04-03T16:20:27.896Z,75.30
2023-04-03T16:22:58.402Z,76.50
2023-04-03T16:25:27.432Z,75.70
2023-04-03T16:28:01.969Z,76.40
2023-04-03T16:30:30.688Z,75.20
2023-04-03T16:33:00.238Z,74.60
2023-04-03T16:35:30.815Z,74.80
2023-04-03T16:37:59.294Z,75.60
2023-04-03T16:40:27.499Z,75.20
2023-04-03T16:42:56.661Z,75.40
2023-04-03T16:45:27.204Z,76.30
2023-04-03T16:47:55.613Z,76.30
2023-04-03T16:50:26.235Z,73.70
2023-04-03T16:52:55.283Z,74.80
2023-04-03T16:55:34.043Z,75.20
2023-04-03T16:58:04.083Z,76.10
2023-04-03T17:00:35.189Z,75.90
2023-04-03T17:03:11.426Z,76.40
2023-04-03T17:05:41.950Z,79.30
2023-04-03T17:08:10.812Z,79.20
2023-04-03T17:10:40.495Z,77.70
2023-04-03T17:13:09.882Z,78.00
2023-04-03T17:15:44.100Z,76.60
2023-04-03T17:18:11.451Z,75.20
2023-04-03T17:20:40.000Z,74.90
2023-04-03T17:23:10.369Z,74.50
2023-04-03T17:25:37.803Z,74.70
2023-04-03T17:28:07.350Z,75.20
2023-04-03T17:30:36.165Z,75.20
2023-04-03T17:33:04.237Z,75.30
2023-04-03T17:35:34.307Z,76.20
2023-04-03T17:38:05.926Z,76.60
2023-04-03T17:40:33.328Z,77.10
2023-04-03T17:43:01.837Z,77.10
2023-04-03T17:45:30.061Z,76.50
2023-04-03T17:47:59.916Z,76.30
2023-04-03T17:50:30.173Z,77.20
2023-04-03T17:52:58.390Z,76.10
2023-04-03T17:55:27.131Z,75.20
2023-04-03T17:57:57.157Z,74.70
2023-04-03T18:00:27.783Z,75.60
2023-04-03T18:02:55.290Z,75.40
2023-04-03T18:05:22.690Z,75.20
2023-04-03T18:07:53.444Z,76.00
2023-04-03T18:10:29.889Z,76.60
2023-04-03T18:13:06.680Z,77.30
2023-04-03T18:15:37.887Z,74.50
2023-04-03T18:18:08.006Z,75.20
2023-04-03T18:20:37.765Z,76.30
2023-04-03T18:23:07.516Z,76.20
2023-04-03T18:25:38.636Z,76.70
2023-04-03T18:28:16.731Z,76.40
2023-04-03T18:30:50.214Z,76.70
2023-04-03T18:33:18.485Z,76.00
2023-04-03T18:35:52.243Z,78.30
2023-04-03T18:38:32.209Z,77.00
2023-04-03T18:41:02.172Z,78.00
2023-04-03T18:43:45.326Z,75.30
2023-04-03T18:46:15.282Z,74.80
2023-04-03T18:48:45.082Z,76.30
2023-04-03T18:51:15.686Z,75.40
2023-04-03T18:53:52.407Z,77.30
2023-04-03T18:56:22.639Z,75.60
2023-04-03T18:58:51.589Z,76.40
2023-04-03T19:01:28.877Z,76.60
2023-04-03T19:04:02.492Z,75.70
2023-04-03T19:06:30.243Z,77.50
2023-04-03T19:08:58.513Z,76.30
2023-04-03T19:11:30.139Z,76.80
2023-04-03T19:14:16.211Z,77.50
2023-04-03T19:16:47.204Z,77.40
2023-04-03T19:19:14.893Z,77.60
2023-04-03T19:21:42.387Z,78.30
2023-04-03T19:24:13.954Z,77.10
2023-04-03T19:26:43.090Z,78.00
2023-04-03T19:29:13.252Z,78.00
2023-04-03T19:31:43.753Z,77.10
2023-04-03T19:34:14.123Z,77.10
2023-04-03T19:36:51.890Z,77.50
2023-04-03T19:39:20.758Z,77.10
2023-04-03T19:41:57.493Z,77.80
2023-04-03T19:44:25.716Z,78.40
2023-04-03T19:46:53.822Z,78.70
2023-04-03T19:49:23.834Z,79.30
2023-04-03T19:51:51.481Z,78.30
2023-04-03T19:54:21.587Z,76.20
2023-04-03T19:56:52.026Z,75.90
2023-04-03T19:59:20.980Z,77.90
2023-04-03T20:01:51.721Z,76.60
2023-04-03T20:04:19.965Z,77.50
2023-04-03T20:06:49.889Z,76.50
2023-04-03T20:09:25.626Z,77.90
2023-04-03T20:11:55.694Z,76.40
2023-04-03T20:14:24.173Z,77.40
2023-04-03T20:16:53.599Z,79.10
2023-04-03T20:19:27.042Z,80.70
2023-04-03T20:21:57.181Z,80.10
2023-04-03T20:24:27.948Z,77.90
2023-04-03T20:26:58.172Z,77.90
2023-04-03T20:29:30.107Z,78.00
2023-04-03T20:32:00.002Z,78.00
2023-04-03T20:34:33.881Z,79.80
2023-04-03T20:37:10.505Z,80.10
2023-04-03T20:39:38.159Z,78.90
2023-04-03T20:42:07.305Z,78.60
2023-04-03T20:44:35.618Z,78.80
2023-04-03T20:47:13.152Z,78.50
2023-04-03T20:49:44.813Z,77.60
2023-04-03T20:52:13.271Z,78.20
2023-04-03T20:54:41.812Z,79.60
2023-04-03T20:57:10.566Z,77.10
2023-04-03T20:59:41.357Z,80.40
2023-04-03T21:02:09.781Z,80.00
2023-04-03T21:04:49.796Z,79.00
2023-04-03T21:07:55.817Z,79.00
2023-04-03T21:11:04.598Z,78.10
2023-04-03T21:14:18.492Z,78.90
2023-04-03T21:16:54.748Z,79.20
2023-04-03T21:19:33.522Z,79.00
2023-04-03T21:22:08.470Z,80.40
2023-04-03T21:24:39.335Z,80.20
2023-04-03T21:27:11.458Z,81.50
2023-04-03T21:29:39.969Z,82.40
2023-04-03T21:32:16.575Z,80.90
2023-04-03T21:34:49.257Z,81.10
2023-04-03T21:37:19.880Z,83.50
2023-04-03T21:40:04.849Z,80.10
2023-04-03T21:42:35.180Z,82.70
2023-04-03T21:45:04.498Z,81.70
2023-04-03T21:47:36.339Z,79.50
2023-04-03T21:50:06.086Z,79.30
2023-04-03T21:52:34.726Z,79.00
2023-04-03T21:55:03.154Z,77.50
2023-04-03T21:57:32.356Z,79.80
2023-04-03T22:00:01.272Z,77.90
2023-04-03T22:02:32.658Z,78.70
2023-04-03T22:05:00.850Z,79.20
2023-04-03T22:07:28.147Z,76.40
2023-04-03T22:09:58.169Z,77.40
2023-04-03T22:12:28.248Z,78.20
2023-04-03T22:14:56.292Z,77.40
2023-04-03T22:17:26.080Z,77.30
2023-04-03T22:19:56.972Z,78.50
2023-04-03T22:22:28.083Z,82.00
2023-04-03T22:24:57.603Z,81.30
2023-04-03T22:27:24.563Z,81.20
2023-04-03T22:29:53.529Z,80.10
2023-04-03T22:32:22.256Z,80.20
2023-04-03T22:34:50.823Z,80.80
2023-04-03T22:37:20.567Z,79.60
2023-04-03T22:39:51.226Z,79.40
2023-04-03T22:42:19.622Z,80.00
2023-04-03T22:44:49.731Z,78.10
2023-04-03T22:47:18.470Z,78.50
2023-04-03T22:49:46.840Z,78.50
2023-04-03T22:52:16.899Z,78.80
2023-04-03T22:54:45.610Z,79.60
2023-04-03T22:57:16.177Z,80.00
2023-04-03T22:59:47.364Z,79.70
2023-04-03T23:02:20.061Z,80.20
2023-04-03T23:04:48.748Z,81.20
2023-04-03T23:07:28.602Z,81.60
2023-04-03T23:09:58.209Z,81.40
2023-04-03T23:12:28.724Z,80.10
2023-04-03T23:14:56.967Z,79.10
2023-04-03T23:17:33.705Z,78.70
2023-04-03T23:20:05.403Z,78.10
2023-04-03T23:22:34.396Z,78.10
2023-04-03T23:25:02.590Z,79.50
2023-04-03T23:27:38.429Z,80.40
2023-04-03T23:30:24.947Z,80.80
2023-04-03T23:32:54.942Z,78.40
2023-04-03T23:35:32.460Z,79.80
2023-04-03T23:38:02.140Z,78.70
2023-04-03T23:40:30.583Z,81.80
2023-04-03T23:43:01.754Z,80.90
2023-04-03T23:45:37.485Z,81.20
2023-04-03T23:48:10.115Z,83.50
2023-04-03T23:50:39.364Z,82.30
2023-04-03T23:53:06.611Z,81.50
2023-04-03T23:55:36.995Z,82.60
2023-04-03T23:58:06.952Z,84.30
